Terminal Aerodrome Forecast
Issued by NWS Cleveland, OH

Home | Current Version | Previous Version | Text Only | Print | Product List | Glossary Off
Versions: 1 2 3 4 5 6 7 8 9 10 11 12 13 14 15 16 17 18

000
FTUS41 KCLE 280500
TAFCAK
TAF
KCAK 280530Z 2806/2906 07002KT 6SM BR FEW150 BKN250
      TEMPO 2809/2813 4SM BR
     FM281600 16003KT P6SM SCT045 BKN250
     FM290000 VRB02KT P6SM SCT200=

USA.gov is the U.S. government's official web portal to all federal, state and local government web resources and services.